TRA5J EHAM-GCLP
Flight info
| Callsign | TRA5J |
|---|---|
| Flight time | N/A |
| Altitude | 32000 |
| Route | IDRID L980 MANGO L620 SAM/N0448F330 M195 LORKU DCT BALDA DCT ABUPI DCT BEXAL/N0449F350 DCT SAMAR |
| Aircraft | A321/M-SDE3FGHIRWY/LB1 |
Departure
| Time | 2026-04-30 10:26 |
|---|---|
| Airport | Amsterdam Airport Schiphol (EHAM) |
Arrival
| Time | N/A |
|---|---|
| Airport | Gran Canaria Airport (GCLP) |
| Time | Latitude | Longitude | Altitude | Speed | Heading |
|---|---|---|---|---|---|
| 2026-04-30 09:40 | 52.30469 | 4.76569 | -2 ft | 0 kts | 58° |
| 2026-04-30 10:14 | 52.30469 | 4.76567 | -3 ft | 1 kts | 58° |
| 2026-04-30 10:14 | 52.30454 | 4.76516 | -3 ft | 3 kts | 93° |
| 2026-04-30 10:15 | 52.30457 | 4.76495 | -3 ft | 1 kts | 132° |
| 2026-04-30 10:15 | 52.30458 | 4.76493 | -3 ft | 0 kts | 133° |
| 2026-04-30 10:17 | 52.30453 | 4.76497 | -3 ft | 2 kts | 154° |
| 2026-04-30 10:17 | 52.30423 | 4.76524 | -3 ft | 6 kts | 148° |
| 2026-04-30 10:18 | 52.30391 | 4.76557 | -3 ft | 5 kts | 149° |
| 2026-04-30 10:18 | 52.30365 | 4.76585 | -3 ft | 5 kts | 134° |
| 2026-04-30 10:18 | 52.30347 | 4.76671 | -3 ft | 9 kts | 104° |
| 2026-04-30 10:19 | 52.30312 | 4.76817 | -3 ft | 7 kts | 69° |
| 2026-04-30 10:19 | 52.30340 | 4.76893 | -3 ft | 8 kts | 58° |
| 2026-04-30 10:19 | 52.30385 | 4.77011 | -3 ft | 16 kts | 58° |
| 2026-04-30 10:19 | 52.30443 | 4.77162 | -3 ft | 15 kts | 58° |
| 2026-04-30 10:20 | 52.30504 | 4.77323 | -3 ft | 20 kts | 58° |
| 2026-04-30 10:20 | 52.30679 | 4.77588 | -3 ft | 17 kts | 6° |
| 2026-04-30 10:20 | 52.30789 | 4.77600 | -3 ft | 15 kts | 3° |
| 2026-04-30 10:21 | 52.30889 | 4.77610 | -3 ft | 14 kts | 3° |
| 2026-04-30 10:21 | 52.31003 | 4.77620 | -3 ft | 17 kts | 2° |
| 2026-04-30 10:21 | 52.31115 | 4.77629 | -3 ft | 15 kts | 3° |
| 2026-04-30 10:21 | 52.31217 | 4.77637 | -3 ft | 14 kts | 3° |
| 2026-04-30 10:22 | 52.31309 | 4.77647 | -3 ft | 12 kts | 4° |
| 2026-04-30 10:22 | 52.31390 | 4.77655 | -2 ft | 11 kts | 1° |
| 2026-04-30 10:22 | 52.31458 | 4.77632 | -3 ft | 9 kts | 336° |
| 2026-04-30 10:22 | 52.31503 | 4.77574 | -3 ft | 7 kts | 317° |
| 2026-04-30 10:23 | 52.31543 | 4.77554 | -3 ft | 5 kts | 8° |
| 2026-04-30 10:23 | 52.31570 | 4.77577 | -3 ft | 4 kts | 31° |
| 2026-04-30 10:23 | 52.31584 | 4.77606 | -3 ft | 3 kts | 65° |
| 2026-04-30 10:23 | 52.31588 | 4.77659 | -2 ft | 9 kts | 83° |
| 2026-04-30 10:24 | 52.31595 | 4.77760 | -2 ft | 8 kts | 84° |
| 2026-04-30 10:24 | 52.31598 | 4.77843 | -2 ft | 6 kts | 88° |
| 2026-04-30 10:24 | 52.31599 | 4.77903 | -1 ft | 5 kts | 88° |
| 2026-04-30 10:24 | 52.31595 | 4.77944 | -1 ft | 3 kts | 103° |
| 2026-04-30 10:25 | 52.31581 | 4.77962 | 0 ft | 4 kts | 163° |
| 2026-04-30 10:25 | 52.31561 | 4.77965 | 0 ft | 0 kts | 181° |
| 2026-04-30 10:25 | 52.31558 | 4.77965 | 0 ft | 5 kts | 181° |
| 2026-04-30 10:25 | 52.31288 | 4.77945 | -2 ft | 75 kts | 184° |
| 2026-04-30 10:26 | 52.30550 | 4.77873 | -1 ft | 134 kts | 183° |
| 2026-04-30 10:26 | 52.29462 | 4.77765 | 59 ft | 172 kts | 176° |
| 2026-04-30 10:26 | 52.28299 | 4.77655 | 781 ft | 166 kts | 173° |
| 2026-04-30 10:26 | 52.27224 | 4.78131 | 1471 ft | 161 kts | 154° |
| 2026-04-30 10:27 | 52.26137 | 4.78702 | 2161 ft | 167 kts | 157° |
| 2026-04-30 10:27 | 52.24950 | 4.79262 | 2432 ft | 187 kts | 157° |
| 2026-04-30 10:27 | 52.23639 | 4.79868 | 2587 ft | 205 kts | 159° |
| 2026-04-30 10:27 | 52.22157 | 4.79991 | 2839 ft | 225 kts | 186° |
| 2026-04-30 10:28 | 52.20728 | 4.78772 | 3365 ft | 243 kts | 218° |
| 2026-04-30 10:28 | 52.19802 | 4.76308 | 3721 ft | 275 kts | 253° |
| 2026-04-30 10:28 | 52.19772 | 4.73095 | 4125 ft | 292 kts | 277° |
| 2026-04-30 10:28 | 52.20146 | 4.69815 | 4790 ft | 296 kts | 283° |
| 2026-04-30 10:29 | 52.20640 | 4.66549 | 5461 ft | 298 kts | 284° |
| 2026-04-30 10:29 | 52.21168 | 4.63269 | 6153 ft | 300 kts | 285° |
| 2026-04-30 10:29 | 52.21685 | 4.59974 | 6885 ft | 301 kts | 284° |
| 2026-04-30 10:29 | 52.22014 | 4.56599 | 7535 ft | 303 kts | 271° |
| 2026-04-30 10:30 | 52.21847 | 4.53181 | 8155 ft | 303 kts | 256° |
| 2026-04-30 10:30 | 52.21227 | 4.49895 | 8755 ft | 305 kts | 248° |
| 2026-04-30 10:30 | 52.20520 | 4.46621 | 9389 ft | 308 kts | 249° |
| 2026-04-30 10:30 | 52.19814 | 4.43315 | 10011 ft | 310 kts | 249° |
| 2026-04-30 10:31 | 52.19105 | 4.39973 | 10564 ft | 314 kts | 249° |
| 2026-04-30 10:31 | 52.18369 | 4.36506 | 10715 ft | 334 kts | 249° |
| 2026-04-30 10:31 | 52.17589 | 4.32828 | 10846 ft | 352 kts | 249° |
| 2026-04-30 10:31 | 52.16769 | 4.28961 | 10971 ft | 370 kts | 249° |
| 2026-04-30 10:32 | 52.15910 | 4.24910 | 11085 ft | 387 kts | 249° |
| 2026-04-30 10:32 | 52.15021 | 4.20710 | 11412 ft | 396 kts | 250° |
| 2026-04-30 10:32 | 52.14119 | 4.16452 | 11918 ft | 400 kts | 250° |
| 2026-04-30 10:32 | 52.13207 | 4.12155 | 12443 ft | 403 kts | 250° |
| 2026-04-30 10:33 | 52.12286 | 4.07836 | 12983 ft | 405 kts | 250° |
| 2026-04-30 10:33 | 52.11353 | 4.03493 | 13504 ft | 409 kts | 249° |
| 2026-04-30 10:33 | 52.10408 | 3.99118 | 14005 ft | 411 kts | 249° |
| 2026-04-30 10:33 | 52.09457 | 3.94714 | 14485 ft | 414 kts | 249° |
| 2026-04-30 10:34 | 52.08498 | 3.90281 | 14936 ft | 417 kts | 249° |
| 2026-04-30 10:34 | 52.07531 | 3.85830 | 15385 ft | 419 kts | 249° |
| 2026-04-30 10:34 | 52.06571 | 3.81411 | 15811 ft | 421 kts | 249° |
| 2026-04-30 10:34 | 52.05591 | 3.76909 | 16245 ft | 424 kts | 249° |
| 2026-04-30 10:35 | 52.04605 | 3.72384 | 16670 ft | 426 kts | 249° |
| 2026-04-30 10:35 | 52.03611 | 3.67833 | 17087 ft | 429 kts | 249° |
| 2026-04-30 10:35 | 52.02611 | 3.63258 | 17517 ft | 431 kts | 250° |
| 2026-04-30 10:35 | 52.01603 | 3.58656 | 17931 ft | 434 kts | 249° |
| 2026-04-30 10:36 | 52.00587 | 3.54027 | 18344 ft | 436 kts | 249° |
| 2026-04-30 10:36 | 51.99365 | 3.49513 | 18719 ft | 438 kts | 240° |
| 2026-04-30 10:36 | 51.97718 | 3.45357 | 19073 ft | 439 kts | 232° |
| 2026-04-30 10:36 | 51.95903 | 3.41371 | 19426 ft | 441 kts | 232° |
| 2026-04-30 10:37 | 51.94080 | 3.37369 | 19785 ft | 442 kts | 232° |
| 2026-04-30 10:37 | 51.92844 | 3.34654 | 20031 ft | 444 kts | 232° |
| 2026-04-30 10:37 | 51.90413 | 3.29310 | 20495 ft | 446 kts | 232° |
| 2026-04-30 10:37 | 51.88571 | 3.25250 | 20847 ft | 448 kts | 232° |
| 2026-04-30 10:38 | 51.87376 | 3.22511 | 21073 ft | 450 kts | 236° |
| 2026-04-30 10:38 | 51.85897 | 3.18028 | 21411 ft | 454 kts | 246° |
| 2026-04-30 10:38 | 51.84874 | 3.13188 | 21753 ft | 457 kts | 256° |
| 2026-04-30 10:38 | 51.84334 | 3.08105 | 22076 ft | 460 kts | 264° |
| 2026-04-30 10:39 | 51.84012 | 3.02963 | 22405 ft | 462 kts | 264° |
| 2026-04-30 10:39 | 51.83682 | 2.97783 | 22727 ft | 464 kts | 263° |
| 2026-04-30 10:39 | 51.83341 | 2.92594 | 23061 ft | 466 kts | 263° |
| 2026-04-30 10:39 | 51.82992 | 2.87381 | 23377 ft | 468 kts | 263° |
| 2026-04-30 10:40 | 51.82639 | 2.82133 | 23700 ft | 470 kts | 263° |
| 2026-04-30 10:40 | 51.82280 | 2.76881 | 23994 ft | 472 kts | 263° |
| 2026-04-30 10:40 | 51.81916 | 2.71597 | 24245 ft | 474 kts | 263° |
| 2026-04-30 10:40 | 51.81551 | 2.66296 | 24497 ft | 476 kts | 263° |
| 2026-04-30 10:41 | 51.81185 | 2.60969 | 24756 ft | 477 kts | 263° |
| 2026-04-30 10:41 | 51.80820 | 2.55629 | 25007 ft | 479 kts | 263° |
| 2026-04-30 10:41 | 51.80449 | 2.50273 | 25250 ft | 481 kts | 263° |
| 2026-04-30 10:41 | 51.80072 | 2.44889 | 25481 ft | 483 kts | 262° |
| 2026-04-30 10:42 | 51.79693 | 2.39494 | 25721 ft | 484 kts | 262° |
| 2026-04-30 10:42 | 51.79309 | 2.34077 | 25962 ft | 486 kts | 262° |
| 2026-04-30 10:42 | 51.78922 | 2.28649 | 26198 ft | 488 kts | 262° |
| 2026-04-30 10:42 | 51.78529 | 2.23186 | 26448 ft | 490 kts | 262° |
| 2026-04-30 10:43 | 51.78151 | 2.17723 | 26721 ft | 490 kts | 263° |
| 2026-04-30 10:43 | 51.77813 | 2.12251 | 27080 ft | 489 kts | 263° |
| 2026-04-30 10:43 | 51.77503 | 2.06783 | 27425 ft | 489 kts | 264° |
| 2026-04-30 10:43 | 51.77205 | 2.01321 | 27752 ft | 488 kts | 264° |
| 2026-04-30 10:44 | 51.76903 | 1.95866 | 28078 ft | 488 kts | 263° |
| 2026-04-30 10:44 | 51.76589 | 1.90411 | 28395 ft | 488 kts | 263° |
| 2026-04-30 10:44 | 51.76266 | 1.85044 | 28699 ft | 487 kts | 263° |
| 2026-04-30 10:44 | 51.75926 | 1.79523 | 29003 ft | 487 kts | 263° |
| 2026-04-30 10:45 | 51.75588 | 1.74155 | 29303 ft | 487 kts | 262° |
| 2026-04-30 10:45 | 51.75234 | 1.68644 | 29607 ft | 487 kts | 262° |
| 2026-04-30 10:45 | 51.74888 | 1.63284 | 29904 ft | 487 kts | 262° |
| 2026-04-30 10:45 | 51.74541 | 1.57849 | 30185 ft | 487 kts | 262° |
| 2026-04-30 10:46 | 51.74198 | 1.52419 | 30454 ft | 487 kts | 262° |
| 2026-04-30 10:46 | 51.73853 | 1.46987 | 30694 ft | 487 kts | 262° |
| 2026-04-30 10:46 | 51.73504 | 1.41549 | 30945 ft | 487 kts | 262° |
| 2026-04-30 10:46 | 51.73154 | 1.36123 | 31191 ft | 486 kts | 262° |
| 2026-04-30 10:47 | 51.72800 | 1.30706 | 31440 ft | 486 kts | 262° |
| 2026-04-30 10:47 | 51.72442 | 1.25284 | 31694 ft | 486 kts | 262° |
| 2026-04-30 10:47 | 51.72082 | 1.19873 | 31945 ft | 485 kts | 262° |
| 2026-04-30 10:47 | 51.71718 | 1.14459 | 32183 ft | 485 kts | 261° |
| 2026-04-30 10:48 | 51.71350 | 1.09051 | 32427 ft | 485 kts | 261° |
| 2026-04-30 10:48 | 51.70981 | 1.03644 | 32669 ft | 485 kts | 261° |
| 2026-04-30 10:48 | 51.70611 | 0.98242 | 32908 ft | 485 kts | 261° |
| 2026-04-30 10:48 | 51.70241 | 0.92835 | 33142 ft | 485 kts | 261° |
| 2026-04-30 10:49 | 51.69868 | 0.87436 | 33389 ft | 485 kts | 261° |
| 2026-04-30 10:49 | 51.69391 | 0.82076 | 33607 ft | 481 kts | 252° |
| 2026-04-30 10:49 | 51.68223 | 0.77084 | 33817 ft | 473 kts | 237° |
| 2026-04-30 10:49 | 51.66494 | 0.72609 | 34017 ft | 468 kts | 229° |
| 2026-04-30 10:50 | 51.64518 | 0.68465 | 34222 ft | 467 kts | 228° |
| 2026-04-30 10:50 | 51.62588 | 0.64257 | 34423 ft | 468 kts | 230° |
| 2026-04-30 10:50 | 51.60708 | 0.59968 | 34625 ft | 468 kts | 230° |
| 2026-04-30 10:50 | 51.58861 | 0.55661 | 34813 ft | 468 kts | 231° |
| 2026-04-30 10:51 | 51.57015 | 0.51350 | 35003 ft | 468 kts | 231° |
| 2026-04-30 10:51 | 51.55162 | 0.47067 | 35196 ft | 467 kts | 230° |
| 2026-04-30 10:51 | 51.51395 | 0.38537 | 35291 ft | 469 kts | 230° |
| 2026-04-30 10:52 | 51.47573 | 0.30040 | 35263 ft | 469 kts | 229° |
| 2026-04-30 10:52 | 51.43751 | 0.21576 | 35284 ft | 469 kts | 229° |
| 2026-04-30 10:53 | 51.40245 | 0.13786 | 35245 ft | 469 kts | 230° |
| 2026-04-30 10:53 | 51.36434 | 0.05310 | 35249 ft | 469 kts | 229° |
| 2026-04-30 10:54 | 51.32868 | -0.02577 | 35254 ft | 469 kts | 229° |
| 2026-04-30 10:54 | 51.29045 | -0.11011 | 35262 ft | 468 kts | 229° |
| 2026-04-30 10:55 | 51.25240 | -0.19361 | 35266 ft | 468 kts | 229° |
| 2026-04-30 10:55 | 51.21409 | -0.27733 | 35273 ft | 467 kts | 229° |
| 2026-04-30 10:56 | 51.17585 | -0.36087 | 35278 ft | 466 kts | 229° |
| 2026-04-30 10:56 | 51.13761 | -0.44405 | 35254 ft | 465 kts | 229° |
| 2026-04-30 10:57 | 51.09939 | -0.52677 | 35247 ft | 464 kts | 229° |
| 2026-04-30 10:57 | 51.06333 | -0.61185 | 35248 ft | 467 kts | 239° |
| 2026-04-30 10:58 | 51.04247 | -0.71020 | 35246 ft | 474 kts | 255° |
| 2026-04-30 10:58 | 51.02889 | -0.81253 | 35241 ft | 473 kts | 255° |
| 2026-04-30 10:59 | 51.01493 | -0.91461 | 35237 ft | 473 kts | 254° |
| 2026-04-30 10:59 | 51.00087 | -1.01658 | 35223 ft | 473 kts | 254° |
| 2026-04-30 11:00 | 50.98679 | -1.11860 | 35219 ft | 473 kts | 254° |
| 2026-04-30 11:00 | 50.97263 | -1.22039 | 35218 ft | 472 kts | 253° |
| 2026-04-30 11:01 | 50.94840 | -1.31551 | 35212 ft | 461 kts | 233° |
| 2026-04-30 11:01 | 50.90755 | -1.39190 | 35213 ft | 450 kts | 216° |
| 2026-04-30 11:02 | 50.85657 | -1.44805 | 35205 ft | 446 kts | 209° |
| 2026-04-30 11:02 | 50.80465 | -1.50178 | 35212 ft | 446 kts | 209° |
| 2026-04-30 11:03 | 50.75271 | -1.55541 | 35204 ft | 446 kts | 209° |
| 2026-04-30 11:04 | 50.67537 | -1.63537 | 35216 ft | 444 kts | 210° |
| 2026-04-30 11:04 | 50.62370 | -1.68851 | 35217 ft | 442 kts | 210° |
| 2026-04-30 11:05 | 50.57226 | -1.74128 | 35205 ft | 441 kts | 210° |
| 2026-04-30 11:05 | 50.52093 | -1.79377 | 35201 ft | 439 kts | 210° |
| 2026-04-30 11:06 | 50.46977 | -1.84599 | 35193 ft | 438 kts | 210° |
| 2026-04-30 11:06 | 50.41874 | -1.89794 | 35182 ft | 436 kts | 210° |
| 2026-04-30 11:07 | 50.36786 | -1.94956 | 35180 ft | 435 kts | 210° |
| 2026-04-30 11:07 | 50.31717 | -2.00076 | 35175 ft | 433 kts | 210° |
| 2026-04-30 11:08 | 50.26661 | -2.05184 | 35174 ft | 432 kts | 210° |
| 2026-04-30 11:08 | 50.21606 | -2.10245 | 35166 ft | 431 kts | 209° |
| 2026-04-30 11:09 | 50.16532 | -2.15191 | 35163 ft | 430 kts | 208° |
| 2026-04-30 11:09 | 50.11452 | -2.20083 | 35156 ft | 429 kts | 209° |
| 2026-04-30 11:10 | 50.06390 | -2.24969 | 35158 ft | 428 kts | 209° |
| 2026-04-30 11:10 | 50.01344 | -2.29852 | 35148 ft | 427 kts | 209° |
| 2026-04-30 11:11 | 49.96306 | -2.34707 | 35146 ft | 426 kts | 209° |
| 2026-04-30 11:11 | 49.91124 | -2.38920 | 35136 ft | 422 kts | 201° |
| 2026-04-30 11:12 | 49.85730 | -2.42514 | 35136 ft | 422 kts | 201° |
| 2026-04-30 11:12 | 49.80338 | -2.46087 | 35128 ft | 421 kts | 201° |
| 2026-04-30 11:13 | 49.74954 | -2.49650 | 35125 ft | 421 kts | 201° |
| 2026-04-30 11:13 | 49.69571 | -2.53211 | 35115 ft | 420 kts | 201° |
| 2026-04-30 11:14 | 49.64190 | -2.56757 | 35102 ft | 420 kts | 201° |
| 2026-04-30 11:14 | 49.58810 | -2.60292 | 35091 ft | 420 kts | 201° |
| 2026-04-30 11:15 | 49.53433 | -2.63818 | 35092 ft | 420 kts | 201° |
| 2026-04-30 11:15 | 49.48058 | -2.67329 | 35090 ft | 420 kts | 201° |
| 2026-04-30 11:16 | 49.42688 | -2.70828 | 35092 ft | 419 kts | 201° |
| 2026-04-30 11:16 | 49.37316 | -2.74334 | 35091 ft | 419 kts | 201° |
| 2026-04-30 11:17 | 49.31950 | -2.77827 | 35092 ft | 419 kts | 201° |
| 2026-04-30 11:17 | 49.26581 | -2.81305 | 35091 ft | 419 kts | 201° |
| 2026-04-30 11:18 | 49.21212 | -2.84775 | 35093 ft | 419 kts | 201° |
| 2026-04-30 11:18 | 49.13152 | -2.89975 | 35093 ft | 419 kts | 201° |
| 2026-04-30 11:19 | 49.07778 | -2.93428 | 35094 ft | 419 kts | 201° |
| 2026-04-30 11:19 | 49.02403 | -2.96874 | 35089 ft | 419 kts | 201° |
| 2026-04-30 11:20 | 48.97028 | -3.00317 | 35090 ft | 419 kts | 201° |
| 2026-04-30 11:20 | 48.91655 | -3.03747 | 35079 ft | 419 kts | 201° |
| 2026-04-30 11:21 | 48.86288 | -3.07162 | 35069 ft | 418 kts | 201° |
| 2026-04-30 11:21 | 48.80921 | -3.10570 | 35058 ft | 418 kts | 201° |
| 2026-04-30 11:22 | 48.75594 | -3.13939 | 35053 ft | 418 kts | 201° |
| 2026-04-30 11:22 | 48.70234 | -3.17323 | 35045 ft | 417 kts | 201° |
| 2026-04-30 11:23 | 48.64873 | -3.20707 | 35044 ft | 417 kts | 201° |
| 2026-04-30 11:24 | 48.56836 | -3.25778 | 35043 ft | 417 kts | 201° |
| 2026-04-30 11:24 | 48.51471 | -3.29144 | 35041 ft | 417 kts | 201° |
| 2026-04-30 11:25 | 48.43430 | -3.34172 | 35041 ft | 417 kts | 201° |
| 2026-04-30 11:26 | 48.33615 | -3.40290 | 35037 ft | 417 kts | 201° |
| 2026-04-30 11:26 | 48.28258 | -3.43621 | 35031 ft | 417 kts | 201° |
| 2026-04-30 11:27 | 48.22895 | -3.46938 | 35030 ft | 417 kts | 201° |
| 2026-04-30 11:27 | 48.17534 | -3.50250 | 35026 ft | 417 kts | 201° |
| 2026-04-30 11:28 | 48.09489 | -3.55207 | 35021 ft | 417 kts | 201° |
| 2026-04-30 11:29 | 48.04119 | -3.58502 | 35026 ft | 417 kts | 201° |
| 2026-04-30 11:29 | 47.96062 | -3.63442 | 35023 ft | 417 kts | 201° |
| 2026-04-30 11:30 | 47.88009 | -3.68360 | 35017 ft | 417 kts | 201° |
| 2026-04-30 11:31 | 47.82643 | -3.71636 | 35017 ft | 417 kts | 201° |
| 2026-04-30 11:31 | 47.77272 | -3.74906 | 35022 ft | 417 kts | 201° |
| 2026-04-30 11:32 | 47.71897 | -3.78169 | 35023 ft | 417 kts | 201° |
| 2026-04-30 11:32 | 47.66521 | -3.81419 | 35019 ft | 417 kts | 201° |
| 2026-04-30 11:33 | 47.58439 | -3.86295 | 35023 ft | 418 kts | 201° |
| 2026-04-30 11:33 | 47.53043 | -3.89548 | 35025 ft | 419 kts | 201° |
| 2026-04-30 11:34 | 47.47671 | -3.92771 | 35027 ft | 420 kts | 201° |
| 2026-04-30 11:34 | 47.42252 | -3.96015 | 35025 ft | 421 kts | 201° |
| 2026-04-30 11:35 | 47.36825 | -3.99260 | 35029 ft | 421 kts | 201° |
| 2026-04-30 11:35 | 47.31394 | -4.02494 | 35025 ft | 421 kts | 201° |
| 2026-04-30 11:36 | 47.25957 | -4.05734 | 35031 ft | 422 kts | 201° |
| 2026-04-30 11:36 | 47.20514 | -4.08971 | 35031 ft | 422 kts | 201° |
| 2026-04-30 11:37 | 47.15055 | -4.12204 | 35034 ft | 423 kts | 201° |
| 2026-04-30 11:37 | 47.09587 | -4.15437 | 35036 ft | 424 kts | 201° |
| 2026-04-30 11:38 | 47.04109 | -4.18672 | 35043 ft | 425 kts | 201° |
| 2026-04-30 11:38 | 46.98616 | -4.21900 | 35045 ft | 426 kts | 201° |
| 2026-04-30 11:39 | 46.93117 | -4.25126 | 35047 ft | 426 kts | 201° |
| 2026-04-30 11:39 | 46.87610 | -4.28349 | 34977 ft | 427 kts | 201° |
| 2026-04-30 11:40 | 46.82066 | -4.31597 | 35069 ft | 434 kts | 201° |
| 2026-04-30 11:40 | 46.76407 | -4.34895 | 35058 ft | 440 kts | 202° |
| 2026-04-30 11:41 | 46.70706 | -4.38217 | 35076 ft | 442 kts | 202° |
| 2026-04-30 11:41 | 46.64989 | -4.41542 | 35059 ft | 443 kts | 202° |
| 2026-04-30 11:42 | 46.59255 | -4.44862 | 35062 ft | 444 kts | 202° |
| 2026-04-30 11:42 | 46.53513 | -4.48187 | 35059 ft | 444 kts | 202° |
| 2026-04-30 11:43 | 46.47762 | -4.51498 | 35066 ft | 445 kts | 202° |
| 2026-04-30 11:43 | 46.41998 | -4.54809 | 35079 ft | 446 kts | 202° |
| 2026-04-30 11:44 | 46.36271 | -4.58098 | 35078 ft | 446 kts | 202° |
| 2026-04-30 11:44 | 46.30496 | -4.61410 | 35081 ft | 446 kts | 202° |
| 2026-04-30 11:45 | 46.24719 | -4.64705 | 35079 ft | 447 kts | 202° |
| 2026-04-30 11:45 | 46.18936 | -4.67995 | 35081 ft | 447 kts | 202° |
| 2026-04-30 11:46 | 46.13153 | -4.71288 | 35088 ft | 447 kts | 202° |
| 2026-04-30 11:46 | 46.07376 | -4.74579 | 35086 ft | 446 kts | 202° |
| 2026-04-30 11:47 | 46.01594 | -4.77852 | 35087 ft | 446 kts | 202° |
| 2026-04-30 11:47 | 45.95817 | -4.81114 | 35085 ft | 446 kts | 202° |
| 2026-04-30 11:48 | 45.90037 | -4.84378 | 35085 ft | 446 kts | 202° |
| 2026-04-30 11:48 | 45.84258 | -4.87633 | 35088 ft | 446 kts | 202° |
| 2026-04-30 11:49 | 45.78472 | -4.90881 | 35091 ft | 447 kts | 202° |
| 2026-04-30 11:49 | 45.72678 | -4.94110 | 35095 ft | 447 kts | 202° |
| 2026-04-30 11:50 | 45.66888 | -4.97347 | 35100 ft | 446 kts | 202° |
| 2026-04-30 11:50 | 45.61107 | -5.00583 | 35101 ft | 446 kts | 202° |
| 2026-04-30 11:51 | 45.55325 | -5.03796 | 35100 ft | 446 kts | 202° |
| 2026-04-30 11:51 | 45.49548 | -5.07003 | 35102 ft | 445 kts | 202° |
| 2026-04-30 11:52 | 45.43776 | -5.10204 | 35103 ft | 445 kts | 202° |
| 2026-04-30 11:52 | 45.38003 | -5.13387 | 35099 ft | 445 kts | 202° |
| 2026-04-30 11:53 | 45.32273 | -5.16542 | 35104 ft | 445 kts | 202° |
| 2026-04-30 11:53 | 45.26512 | -5.19719 | 35105 ft | 444 kts | 202° |
| 2026-04-30 11:54 | 45.20751 | -5.22882 | 35106 ft | 444 kts | 202° |
| 2026-04-30 11:54 | 45.14999 | -5.26033 | 35114 ft | 443 kts | 202° |
| 2026-04-30 11:55 | 45.09258 | -5.29175 | 35117 ft | 442 kts | 202° |
| 2026-04-30 11:55 | 45.03524 | -5.32294 | 35110 ft | 441 kts | 202° |
| 2026-04-30 11:56 | 44.97801 | -5.35410 | 35119 ft | 440 kts | 202° |
| 2026-04-30 11:56 | 44.92089 | -5.38515 | 35114 ft | 440 kts | 202° |
| 2026-04-30 11:57 | 44.86382 | -5.41614 | 35123 ft | 439 kts | 203° |
| 2026-04-30 11:57 | 44.80680 | -5.44700 | 35119 ft | 439 kts | 203° |
| 2026-04-30 11:58 | 44.74989 | -5.47783 | 35115 ft | 438 kts | 203° |
| 2026-04-30 11:58 | 44.69298 | -5.50847 | 35117 ft | 438 kts | 203° |
| 2026-04-30 11:59 | 44.63613 | -5.53888 | 35119 ft | 437 kts | 203° |
| 2026-04-30 11:59 | 44.57954 | -5.57009 | 35114 ft | 436 kts | 205° |
| 2026-04-30 12:00 | 44.52413 | -5.60467 | 35111 ft | 436 kts | 207° |
| 2026-04-30 12:00 | 44.46904 | -5.63997 | 35116 ft | 435 kts | 207° |
| 2026-04-30 12:01 | 44.41373 | -5.67452 | 35116 ft | 435 kts | 206° |
| 2026-04-30 12:01 | 44.35826 | -5.70843 | 35114 ft | 435 kts | 206° |
| 2026-04-30 12:02 | 44.30281 | -5.74224 | 35117 ft | 435 kts | 206° |
| 2026-04-30 12:02 | 44.24745 | -5.77620 | 35110 ft | 434 kts | 206° |
| 2026-04-30 12:03 | 44.16444 | -5.82679 | 35110 ft | 434 kts | 206° |
| 2026-04-30 12:04 | 44.10916 | -5.86050 | 35113 ft | 434 kts | 206° |
| 2026-04-30 12:04 | 44.05389 | -5.89411 | 35106 ft | 433 kts | 207° |
| 2026-04-30 12:05 | 43.99867 | -5.92759 | 35110 ft | 433 kts | 207° |
| 2026-04-30 12:05 | 43.94385 | -5.96076 | 35111 ft | 433 kts | 207° |
| 2026-04-30 12:06 | 43.88869 | -5.99408 | 35102 ft | 432 kts | 207° |
| 2026-04-30 12:06 | 43.83357 | -6.02740 | 35101 ft | 432 kts | 207° |
| 2026-04-30 12:07 | 43.77842 | -6.06066 | 35095 ft | 432 kts | 207° |
| 2026-04-30 12:07 | 43.72330 | -6.09370 | 35081 ft | 432 kts | 207° |
| 2026-04-30 12:08 | 43.66820 | -6.12674 | 35077 ft | 431 kts | 207° |
| 2026-04-30 12:08 | 43.61313 | -6.15967 | 35071 ft | 431 kts | 207° |
| 2026-04-30 12:09 | 43.55805 | -6.19247 | 35071 ft | 431 kts | 207° |
| 2026-04-30 12:09 | 43.50301 | -6.22523 | 35088 ft | 431 kts | 207° |
| 2026-04-30 12:10 | 43.44803 | -6.25798 | 35086 ft | 430 kts | 206° |
| 2026-04-30 12:10 | 43.39313 | -6.29056 | 35081 ft | 430 kts | 206° |
| 2026-04-30 12:11 | 43.33821 | -6.32302 | 35078 ft | 429 kts | 206° |
| 2026-04-30 12:11 | 43.28333 | -6.35551 | 35074 ft | 429 kts | 206° |
| 2026-04-30 12:12 | 43.22850 | -6.38784 | 35078 ft | 429 kts | 206° |
| 2026-04-30 12:12 | 43.17374 | -6.42001 | 35079 ft | 428 kts | 206° |
| 2026-04-30 12:13 | 43.12827 | -6.44677 | 35077 ft | 428 kts | 206° |
| 2026-04-30 12:13 | 43.07360 | -6.47889 | 35077 ft | 428 kts | 206° |
| 2026-04-30 12:14 | 43.01894 | -6.51082 | 35072 ft | 427 kts | 206° |
| 2026-04-30 12:14 | 42.96438 | -6.54271 | 35068 ft | 426 kts | 206° |
| 2026-04-30 12:15 | 42.90984 | -6.57449 | 35067 ft | 426 kts | 206° |
| 2026-04-30 12:15 | 42.85540 | -6.60610 | 35063 ft | 425 kts | 206° |
| 2026-04-30 12:16 | 42.80097 | -6.63775 | 35064 ft | 425 kts | 206° |
| 2026-04-30 12:16 | 42.74660 | -6.66942 | 35069 ft | 425 kts | 206° |
| 2026-04-30 12:17 | 42.66501 | -6.71666 | 35071 ft | 425 kts | 205° |
| 2026-04-30 12:17 | 42.61061 | -6.74794 | 35064 ft | 424 kts | 205° |
| 2026-04-30 12:18 | 42.55622 | -6.77928 | 35067 ft | 424 kts | 205° |
| 2026-04-30 12:18 | 42.50226 | -6.81027 | 35068 ft | 424 kts | 205° |
| 2026-04-30 12:19 | 42.44794 | -6.84142 | 35073 ft | 424 kts | 205° |
| 2026-04-30 12:19 | 42.39363 | -6.87253 | 35073 ft | 424 kts | 205° |
| 2026-04-30 12:20 | 42.33940 | -6.90356 | 35078 ft | 423 kts | 205° |
| 2026-04-30 12:20 | 42.28518 | -6.93456 | 35082 ft | 423 kts | 205° |
| 2026-04-30 12:21 | 42.23097 | -6.96542 | 35085 ft | 422 kts | 205° |
| 2026-04-30 12:21 | 42.17686 | -6.99620 | 35089 ft | 422 kts | 205° |
| 2026-04-30 12:22 | 42.12273 | -7.02683 | 35090 ft | 422 kts | 205° |
| 2026-04-30 12:22 | 42.06865 | -7.05741 | 35093 ft | 421 kts | 205° |
| 2026-04-30 12:23 | 42.01467 | -7.08801 | 35091 ft | 421 kts | 205° |
| 2026-04-30 12:23 | 41.96069 | -7.11851 | 35093 ft | 421 kts | 205° |
| 2026-04-30 12:24 | 41.90707 | -7.14870 | 35093 ft | 421 kts | 205° |
| 2026-04-30 12:24 | 41.85309 | -7.17902 | 35096 ft | 420 kts | 205° |
| 2026-04-30 12:25 | 41.79913 | -7.20924 | 35091 ft | 420 kts | 205° |
| 2026-04-30 12:25 | 41.74561 | -7.24060 | 35086 ft | 419 kts | 211° |
| 2026-04-30 12:26 | 41.69569 | -7.28064 | 35092 ft | 418 kts | 212° |
| 2026-04-30 12:26 | 41.64583 | -7.32065 | 35088 ft | 418 kts | 212° |
| 2026-04-30 12:27 | 41.59578 | -7.36046 | 35092 ft | 418 kts | 212° |
| 2026-04-30 12:27 | 41.54582 | -7.40022 | 35088 ft | 418 kts | 212° |
| 2026-04-30 12:28 | 41.49580 | -7.43998 | 35087 ft | 418 kts | 212° |
| 2026-04-30 12:28 | 41.44576 | -7.47969 | 35089 ft | 419 kts | 212° |
| 2026-04-30 12:29 | 41.39571 | -7.51934 | 35090 ft | 419 kts | 212° |
| 2026-04-30 12:29 | 41.34597 | -7.55875 | 35089 ft | 419 kts | 211° |
| 2026-04-30 12:30 | 41.29589 | -7.59838 | 35088 ft | 419 kts | 211° |
| 2026-04-30 12:30 | 41.24575 | -7.63789 | 35086 ft | 419 kts | 211° |
| 2026-04-30 12:31 | 41.19557 | -7.67733 | 35087 ft | 419 kts | 211° |
| 2026-04-30 12:31 | 41.14542 | -7.71671 | 35090 ft | 419 kts | 211° |
| 2026-04-30 12:32 | 41.09528 | -7.75603 | 35088 ft | 419 kts | 211° |
| 2026-04-30 12:32 | 41.04507 | -7.79533 | 35089 ft | 419 kts | 211° |
| 2026-04-30 12:33 | 40.99490 | -7.83458 | 35094 ft | 419 kts | 211° |
| 2026-04-30 12:33 | 40.94470 | -7.87378 | 35098 ft | 419 kts | 211° |
| 2026-04-30 12:34 | 40.89445 | -7.91288 | 35098 ft | 419 kts | 211° |
| 2026-04-30 12:34 | 40.84422 | -7.95185 | 35102 ft | 419 kts | 210° |
| 2026-04-30 12:35 | 40.79398 | -7.99076 | 35099 ft | 419 kts | 210° |
| 2026-04-30 12:35 | 40.74372 | -8.02965 | 35101 ft | 419 kts | 210° |
| 2026-04-30 12:36 | 40.69352 | -8.06856 | 35102 ft | 419 kts | 210° |
| 2026-04-30 12:36 | 40.64327 | -8.10737 | 35101 ft | 419 kts | 210° |
| 2026-04-30 12:37 | 40.59298 | -8.14611 | 35102 ft | 419 kts | 210° |
| 2026-04-30 12:37 | 40.54270 | -8.18476 | 35106 ft | 419 kts | 210° |
| 2026-04-30 12:38 | 40.49237 | -8.22334 | 35104 ft | 419 kts | 210° |
| 2026-04-30 12:38 | 40.44199 | -8.26187 | 35102 ft | 419 kts | 210° |
| 2026-04-30 12:39 | 40.39161 | -8.30041 | 35105 ft | 419 kts | 210° |
| 2026-04-30 12:39 | 40.34152 | -8.33865 | 35104 ft | 419 kts | 210° |
| 2026-04-30 12:40 | 40.29105 | -8.37714 | 35105 ft | 420 kts | 210° |
| 2026-04-30 12:40 | 40.24059 | -8.41557 | 35106 ft | 420 kts | 210° |
| 2026-04-30 12:41 | 40.19006 | -8.45389 | 35106 ft | 420 kts | 209° |
| 2026-04-30 12:41 | 40.13953 | -8.49223 | 35109 ft | 420 kts | 209° |
| 2026-04-30 12:42 | 40.08898 | -8.53055 | 35108 ft | 420 kts | 209° |
| 2026-04-30 12:42 | 40.03841 | -8.56876 | 35108 ft | 420 kts | 209° |
| 2026-04-30 12:43 | 39.98779 | -8.60692 | 35109 ft | 420 kts | 209° |
| 2026-04-30 12:43 | 39.93717 | -8.64502 | 35108 ft | 420 kts | 209° |
| 2026-04-30 12:44 | 39.88656 | -8.68310 | 35110 ft | 420 kts | 209° |
| 2026-04-30 12:44 | 39.83590 | -8.72112 | 35107 ft | 420 kts | 209° |
| 2026-04-30 12:45 | 39.78521 | -8.75901 | 35108 ft | 420 kts | 209° |
| 2026-04-30 12:45 | 39.73454 | -8.79690 | 35111 ft | 420 kts | 209° |
| 2026-04-30 12:46 | 39.68387 | -8.83478 | 35108 ft | 420 kts | 209° |
| 2026-04-30 12:46 | 39.63316 | -8.87258 | 35110 ft | 420 kts | 209° |
| 2026-04-30 12:47 | 39.58243 | -8.91034 | 35109 ft | 420 kts | 209° |
| 2026-04-30 12:47 | 39.53202 | -8.94782 | 35110 ft | 421 kts | 209° |
| 2026-04-30 12:48 | 39.48122 | -8.98549 | 35110 ft | 421 kts | 209° |
| 2026-04-30 12:48 | 39.43040 | -9.02311 | 35109 ft | 421 kts | 209° |
| 2026-04-30 12:49 | 39.37953 | -9.06068 | 35109 ft | 421 kts | 208° |
| 2026-04-30 12:49 | 39.32862 | -9.09821 | 35109 ft | 421 kts | 209° |
| 2026-04-30 12:50 | 39.27773 | -9.13573 | 35109 ft | 422 kts | 208° |
| 2026-04-30 12:50 | 39.22673 | -9.17319 | 35110 ft | 422 kts | 208° |
| 2026-04-30 12:51 | 39.17568 | -9.21054 | 35109 ft | 422 kts | 208° |
| 2026-04-30 12:51 | 39.12464 | -9.24794 | 35111 ft | 422 kts | 209° |
| 2026-04-30 12:52 | 39.07355 | -9.28537 | 35109 ft | 422 kts | 208° |
| 2026-04-30 12:52 | 39.02244 | -9.32271 | 35111 ft | 423 kts | 208° |
| 2026-04-30 12:53 | 38.97163 | -9.35979 | 35109 ft | 423 kts | 208° |
| 2026-04-30 12:53 | 38.92042 | -9.39699 | 35109 ft | 423 kts | 208° |
| 2026-04-30 12:54 | 38.86925 | -9.43422 | 35108 ft | 423 kts | 208° |
| 2026-04-30 12:54 | 38.81808 | -9.47145 | 35112 ft | 423 kts | 209° |
| 2026-04-30 12:55 | 38.76682 | -9.50861 | 35112 ft | 423 kts | 208° |
| 2026-04-30 12:55 | 38.71552 | -9.54559 | 35115 ft | 423 kts | 208° |
| 2026-04-30 12:56 | 38.66417 | -9.58257 | 35119 ft | 423 kts | 208° |
| 2026-04-30 12:56 | 38.61287 | -9.61954 | 35121 ft | 423 kts | 208° |
| 2026-04-30 12:57 | 38.56153 | -9.65645 | 35129 ft | 423 kts | 208° |
| 2026-04-30 12:57 | 38.51022 | -9.69334 | 35131 ft | 423 kts | 208° |
| 2026-04-30 12:58 | 38.45897 | -9.73017 | 35130 ft | 423 kts | 208° |
| 2026-04-30 12:58 | 38.40769 | -9.76693 | 35132 ft | 423 kts | 208° |
| 2026-04-30 12:59 | 38.35638 | -9.80349 | 35129 ft | 423 kts | 208° |
| 2026-04-30 12:59 | 38.30505 | -9.84006 | 35130 ft | 423 kts | 208° |
| 2026-04-30 13:00 | 38.25377 | -9.87667 | 35131 ft | 422 kts | 208° |
| 2026-04-30 13:00 | 38.20284 | -9.91287 | 35129 ft | 422 kts | 208° |
| 2026-04-30 13:01 | 38.15154 | -9.94924 | 35130 ft | 422 kts | 208° |
| 2026-04-30 13:01 | 38.10026 | -9.98561 | 35128 ft | 422 kts | 209° |
| 2026-04-30 13:02 | 38.04899 | -10.02197 | 35131 ft | 422 kts | 208° |
| 2026-04-30 13:02 | 37.99771 | -10.05818 | 35130 ft | 422 kts | 208° |
| 2026-04-30 13:03 | 37.94636 | -10.09431 | 35135 ft | 422 kts | 209° |
| 2026-04-30 13:03 | 37.89505 | -10.13041 | 35129 ft | 422 kts | 209° |
| 2026-04-30 13:04 | 37.84372 | -10.16648 | 35128 ft | 422 kts | 209° |
| 2026-04-30 13:04 | 37.79240 | -10.20257 | 35126 ft | 422 kts | 209° |
| 2026-04-30 13:05 | 37.74975 | -10.23258 | 35125 ft | 422 kts | 209° |
| 2026-04-30 13:06 | 37.67269 | -10.28654 | 35128 ft | 422 kts | 209° |
| 2026-04-30 13:06 | 37.62123 | -10.32236 | 35128 ft | 422 kts | 209° |
| 2026-04-30 13:07 | 37.56978 | -10.35825 | 35128 ft | 423 kts | 209° |
| 2026-04-30 13:07 | 37.51832 | -10.39411 | 35127 ft | 423 kts | 209° |
| 2026-04-30 13:08 | 37.46683 | -10.42987 | 35127 ft | 423 kts | 209° |
| 2026-04-30 13:08 | 37.41532 | -10.46558 | 35132 ft | 423 kts | 209° |
| 2026-04-30 13:09 | 37.36383 | -10.50129 | 35133 ft | 422 kts | 209° |
| 2026-04-30 13:09 | 37.31232 | -10.53690 | 35133 ft | 422 kts | 209° |
| 2026-04-30 13:10 | 37.26081 | -10.57246 | 35133 ft | 422 kts | 209° |
| 2026-04-30 13:10 | 37.20933 | -10.60793 | 35135 ft | 422 kts | 209° |
| 2026-04-30 13:11 | 37.15784 | -10.64334 | 35137 ft | 422 kts | 209° |
| 2026-04-30 13:11 | 37.10632 | -10.67865 | 35135 ft | 422 kts | 209° |
| 2026-04-30 13:12 | 37.05482 | -10.71393 | 35135 ft | 422 kts | 209° |
| 2026-04-30 13:12 | 37.00336 | -10.74928 | 35138 ft | 422 kts | 209° |
| 2026-04-30 13:13 | 36.92657 | -10.80204 | 35136 ft | 422 kts | 209° |
| 2026-04-30 13:14 | 36.84931 | -10.85461 | 35134 ft | 422 kts | 209° |
| 2026-04-30 13:14 | 36.77202 | -10.90711 | 35138 ft | 422 kts | 209° |
| 2026-04-30 13:15 | 36.69471 | -10.95959 | 35138 ft | 422 kts | 210° |
| 2026-04-30 13:16 | 36.64315 | -10.99458 | 35134 ft | 422 kts | 210° |
| 2026-04-30 13:16 | 36.59151 | -11.02952 | 35128 ft | 423 kts | 210° |
| 2026-04-30 13:17 | 36.51399 | -11.08205 | 35126 ft | 423 kts | 210° |
| 2026-04-30 13:18 | 36.43621 | -11.13447 | 35125 ft | 424 kts | 210° |
| 2026-04-30 13:18 | 36.35818 | -11.18685 | 35122 ft | 426 kts | 211° |
| 2026-04-30 13:19 | 36.30601 | -11.22182 | 35120 ft | 427 kts | 211° |
| 2026-04-30 13:19 | 36.25373 | -11.25686 | 35115 ft | 428 kts | 211° |
| 2026-04-30 13:20 | 36.20131 | -11.29192 | 35111 ft | 429 kts | 211° |
| 2026-04-30 13:20 | 36.14876 | -11.32712 | 35105 ft | 430 kts | 212° |
| 2026-04-30 13:21 | 36.09600 | -11.36224 | 35101 ft | 431 kts | 212° |
| 2026-04-30 13:22 | 36.01658 | -11.41510 | 35099 ft | 433 kts | 213° |
| 2026-04-30 13:22 | 35.93654 | -11.46780 | 35101 ft | 436 kts | 212° |
| 2026-04-30 13:23 | 35.85484 | -11.51845 | 35104 ft | 440 kts | 212° |
| 2026-04-30 13:24 | 35.74556 | -11.58617 | 35099 ft | 442 kts | 213° |
| 2026-04-30 13:25 | 35.63534 | -11.65481 | 35103 ft | 446 kts | 214° |
| 2026-04-30 13:26 | 35.49646 | -11.74086 | 35105 ft | 449 kts | 214° |
| 2026-04-30 13:28 | 35.35667 | -11.82698 | 35107 ft | 451 kts | 214° |
| 2026-04-30 13:28 | 35.27252 | -11.87864 | 35113 ft | 451 kts | 215° |
| 2026-04-30 13:29 | 35.16010 | -11.94755 | 35123 ft | 452 kts | 215° |
| 2026-04-30 13:31 | 35.01981 | -12.03332 | 35120 ft | 452 kts | 215° |
| 2026-04-30 13:32 | 34.87896 | -12.11888 | 35137 ft | 452 kts | 215° |
| 2026-04-30 13:33 | 34.76648 | -12.18723 | 35129 ft | 451 kts | 215° |
| 2026-04-30 13:34 | 34.68226 | -12.23823 | 35127 ft | 451 kts | 214° |
| 2026-04-30 13:35 | 34.56993 | -12.30593 | 35130 ft | 451 kts | 214° |
| 2026-04-30 13:36 | 34.45758 | -12.37351 | 35131 ft | 450 kts | 214° |
| 2026-04-30 13:36 | 34.37337 | -12.42403 | 35135 ft | 450 kts | 214° |
| 2026-04-30 13:37 | 34.28958 | -12.47417 | 35138 ft | 450 kts | 214° |
| 2026-04-30 13:38 | 34.20541 | -12.52432 | 35135 ft | 449 kts | 214° |
| 2026-04-30 13:39 | 34.09342 | -12.59118 | 35137 ft | 449 kts | 214° |
| 2026-04-30 13:40 | 34.00941 | -12.64104 | 35138 ft | 448 kts | 214° |
| 2026-04-30 13:40 | 33.95342 | -12.67426 | 35135 ft | 448 kts | 214° |
| 2026-04-30 13:41 | 33.89751 | -12.70745 | 35135 ft | 448 kts | 214° |
| 2026-04-30 13:41 | 33.84157 | -12.74055 | 35136 ft | 448 kts | 214° |
| 2026-04-30 13:42 | 33.78565 | -12.77351 | 35139 ft | 447 kts | 214° |
| 2026-04-30 13:42 | 33.70179 | -12.82284 | 35140 ft | 447 kts | 214° |
| 2026-04-30 13:43 | 33.64593 | -12.85564 | 35140 ft | 447 kts | 214° |
| 2026-04-30 13:43 | 33.59010 | -12.88842 | 35138 ft | 447 kts | 214° |
| 2026-04-30 13:44 | 33.53428 | -12.92123 | 35139 ft | 446 kts | 214° |
| 2026-04-30 13:44 | 33.47854 | -12.95397 | 35138 ft | 446 kts | 214° |
| 2026-04-30 13:45 | 33.39488 | -13.00283 | 35138 ft | 446 kts | 214° |
| 2026-04-30 13:46 | 33.33914 | -13.03535 | 35137 ft | 446 kts | 214° |
| 2026-04-30 13:46 | 33.28343 | -13.06786 | 35142 ft | 446 kts | 214° |
| 2026-04-30 13:47 | 33.22764 | -13.10018 | 35144 ft | 446 kts | 214° |
| 2026-04-30 13:47 | 33.17195 | -13.13251 | 35142 ft | 445 kts | 214° |
| 2026-04-30 13:48 | 33.11630 | -13.16500 | 35140 ft | 445 kts | 214° |
| 2026-04-30 13:48 | 33.06092 | -13.19699 | 35139 ft | 445 kts | 214° |
| 2026-04-30 13:49 | 33.00486 | -13.22938 | 35139 ft | 445 kts | 214° |
| 2026-04-30 13:49 | 32.94959 | -13.26131 | 35135 ft | 445 kts | 214° |
| 2026-04-30 13:50 | 32.89390 | -13.29338 | 35135 ft | 445 kts | 214° |
| 2026-04-30 13:50 | 32.81039 | -13.34143 | 35138 ft | 444 kts | 214° |
| 2026-04-30 13:51 | 32.75477 | -13.37349 | 35137 ft | 444 kts | 214° |
| 2026-04-30 13:51 | 32.69917 | -13.40551 | 35140 ft | 444 kts | 214° |
| 2026-04-30 13:52 | 32.64352 | -13.43738 | 35143 ft | 444 kts | 214° |
| 2026-04-30 13:52 | 32.58783 | -13.46916 | 35146 ft | 444 kts | 214° |
| 2026-04-30 13:53 | 32.53226 | -13.50101 | 35142 ft | 444 kts | 214° |
| 2026-04-30 13:53 | 32.48604 | -13.52742 | 35155 ft | 444 kts | 214° |
| 2026-04-30 13:54 | 32.43040 | -13.55912 | 35150 ft | 444 kts | 214° |
| 2026-04-30 13:54 | 32.37478 | -13.59075 | 35146 ft | 443 kts | 214° |
| 2026-04-30 13:55 | 32.31922 | -13.62242 | 35140 ft | 443 kts | 214° |
| 2026-04-30 13:55 | 32.26369 | -13.65406 | 35140 ft | 443 kts | 214° |
| 2026-04-30 13:56 | 32.20822 | -13.68554 | 35147 ft | 443 kts | 214° |
| 2026-04-30 13:56 | 32.15258 | -13.71699 | 35147 ft | 443 kts | 214° |
| 2026-04-30 13:57 | 32.09734 | -13.74828 | 35141 ft | 443 kts | 214° |
| 2026-04-30 13:57 | 32.04138 | -13.77987 | 35141 ft | 443 kts | 214° |
| 2026-04-30 13:58 | 31.95809 | -13.82662 | 35141 ft | 443 kts | 214° |
| 2026-04-30 13:59 | 31.90247 | -13.85795 | 35139 ft | 442 kts | 214° |
| 2026-04-30 13:59 | 31.84709 | -13.88925 | 35137 ft | 442 kts | 214° |
| 2026-04-30 14:00 | 31.79140 | -13.92051 | 35136 ft | 442 kts | 214° |
| 2026-04-30 14:00 | 31.70832 | -13.96699 | 35139 ft | 442 kts | 214° |
| 2026-04-30 14:01 | 31.65281 | -13.99808 | 35137 ft | 441 kts | 214° |
| 2026-04-30 14:01 | 31.59733 | -14.02909 | 35130 ft | 441 kts | 214° |
| 2026-04-30 14:02 | 31.54223 | -14.05986 | 35134 ft | 441 kts | 214° |
| 2026-04-30 14:02 | 31.48677 | -14.09082 | 35136 ft | 442 kts | 214° |
| 2026-04-30 14:03 | 31.43088 | -14.12185 | 35134 ft | 441 kts | 214° |
| 2026-04-30 14:03 | 31.37570 | -14.15248 | 35145 ft | 441 kts | 214° |
| 2026-04-30 14:04 | 31.32008 | -14.18334 | 35137 ft | 441 kts | 214° |
| 2026-04-30 14:04 | 31.26468 | -14.21410 | 35140 ft | 442 kts | 214° |
| 2026-04-30 14:05 | 31.20926 | -14.24483 | 35139 ft | 442 kts | 214° |
| 2026-04-30 14:05 | 31.15364 | -14.27557 | 35143 ft | 441 kts | 213° |
| 2026-04-30 14:06 | 31.07035 | -14.32151 | 35134 ft | 441 kts | 214° |
| 2026-04-30 14:07 | 30.98735 | -14.36728 | 35134 ft | 441 kts | 214° |
| 2026-04-30 14:08 | 30.90397 | -14.41292 | 35129 ft | 443 kts | 211° |
| 2026-04-30 14:08 | 30.81505 | -14.44684 | 35129 ft | 449 kts | 206° |
| 2026-04-30 14:09 | 30.75539 | -14.46869 | 35129 ft | 449 kts | 206° |
| 2026-04-30 14:10 | 30.66618 | -14.50162 | 35131 ft | 449 kts | 206° |
| 2026-04-30 14:10 | 30.60663 | -14.52356 | 35126 ft | 449 kts | 206° |
| 2026-04-30 14:11 | 30.54710 | -14.54545 | 35124 ft | 449 kts | 206° |
| 2026-04-30 14:11 | 30.48792 | -14.56714 | 35128 ft | 449 kts | 206° |
| 2026-04-30 14:12 | 30.42833 | -14.58890 | 35125 ft | 448 kts | 206° |
| 2026-04-30 14:12 | 30.36883 | -14.61070 | 35124 ft | 448 kts | 206° |
| 2026-04-30 14:13 | 30.30945 | -14.63247 | 35127 ft | 448 kts | 206° |
| 2026-04-30 14:13 | 30.24986 | -14.65422 | 35128 ft | 448 kts | 206° |
| 2026-04-30 14:14 | 30.19047 | -14.67581 | 35125 ft | 448 kts | 206° |
| 2026-04-30 14:14 | 30.13115 | -14.69740 | 35125 ft | 447 kts | 206° |
| 2026-04-30 14:15 | 30.07180 | -14.71910 | 35129 ft | 447 kts | 206° |
| 2026-04-30 14:15 | 30.01243 | -14.74066 | 35127 ft | 447 kts | 206° |
| 2026-04-30 14:16 | 29.95314 | -14.76205 | 35126 ft | 446 kts | 206° |
| 2026-04-30 14:16 | 29.89393 | -14.78339 | 35125 ft | 446 kts | 206° |
| 2026-04-30 14:17 | 29.83495 | -14.80485 | 35126 ft | 445 kts | 206° |
| 2026-04-30 14:17 | 29.77625 | -14.82615 | 35123 ft | 445 kts | 206° |
| 2026-04-30 14:18 | 29.71686 | -14.84758 | 35135 ft | 444 kts | 206° |
| 2026-04-30 14:18 | 29.62867 | -14.87937 | 34746 ft | 443 kts | 206° |
| 2026-04-30 14:19 | 29.56984 | -14.90050 | 33811 ft | 446 kts | 206° |
| 2026-04-30 14:19 | 29.54017 | -14.91121 | 32933 ft | 450 kts | 205° |
| 2026-04-30 14:19 | 29.51000 | -14.92208 | 32076 ft | 454 kts | 205° |
| 2026-04-30 14:20 | 29.47981 | -14.93294 | 31203 ft | 458 kts | 204° |
| 2026-04-30 14:20 | 29.44908 | -14.94398 | 30250 ft | 465 kts | 204° |
| 2026-04-30 14:20 | 29.38668 | -14.96637 | 28186 ft | 473 kts | 203° |
| 2026-04-30 14:21 | 29.35536 | -14.97754 | 27158 ft | 476 kts | 203° |
| 2026-04-30 14:21 | 29.32356 | -14.98883 | 26466 ft | 473 kts | 203° |
| 2026-04-30 14:21 | 29.26123 | -15.01092 | 25090 ft | 466 kts | 202° |
| 2026-04-30 14:22 | 29.23049 | -15.02190 | 24424 ft | 463 kts | 202° |
| 2026-04-30 14:22 | 29.16933 | -15.04381 | 23027 ft | 455 kts | 202° |
| 2026-04-30 14:22 | 29.13976 | -15.05435 | 22430 ft | 449 kts | 202° |
| 2026-04-30 14:23 | 29.08102 | -15.07529 | 21254 ft | 437 kts | 202° |
| 2026-04-30 14:23 | 29.02373 | -15.09566 | 20113 ft | 426 kts | 202° |
| 2026-04-30 14:24 | 28.96777 | -15.11550 | 19068 ft | 414 kts | 202° |
| 2026-04-30 14:24 | 28.94059 | -15.12512 | 18595 ft | 409 kts | 201° |
| 2026-04-30 14:25 | 28.88704 | -15.14415 | 17599 ft | 396 kts | 201° |
| 2026-04-30 14:25 | 28.83520 | -15.16251 | 16690 ft | 384 kts | 201° |
| 2026-04-30 14:26 | 28.78486 | -15.18035 | 15812 ft | 375 kts | 201° |
| 2026-04-30 14:26 | 28.75998 | -15.18917 | 15366 ft | 371 kts | 201° |
| 2026-04-30 14:26 | 28.71110 | -15.20651 | 14460 ft | 366 kts | 201° |
| 2026-04-30 14:27 | 28.68692 | -15.21507 | 13990 ft | 364 kts | 200° |
| 2026-04-30 14:27 | 28.66271 | -15.22360 | 13475 ft | 362 kts | 200° |
| 2026-04-30 14:27 | 28.63888 | -15.23198 | 12979 ft | 359 kts | 200° |
| 2026-04-30 14:28 | 28.59118 | -15.24883 | 11879 ft | 357 kts | 200° |
| 2026-04-30 14:28 | 28.56743 | -15.25723 | 11328 ft | 357 kts | 200° |
| 2026-04-30 14:28 | 28.54395 | -15.26551 | 11009 ft | 349 kts | 200° |
| 2026-04-30 14:28 | 28.52108 | -15.27353 | 10877 ft | 336 kts | 200° |
| 2026-04-30 14:29 | 28.47805 | -15.28864 | 10638 ft | 312 kts | 200° |
| 2026-04-30 14:29 | 28.44469 | -15.30037 | 10405 ft | 295 kts | 200° |
| 2026-04-30 14:30 | 28.38081 | -15.32290 | 9798 ft | 291 kts | 199° |
| 2026-04-30 14:31 | 28.34204 | -15.33650 | 8894 ft | 293 kts | 199° |
| 2026-04-30 14:31 | 28.30361 | -15.35001 | 8195 ft | 287 kts | 199° |
| 2026-04-30 14:31 | 28.28465 | -15.35669 | 7802 ft | 286 kts | 199° |
| 2026-04-30 14:32 | 28.24713 | -15.36981 | 7335 ft | 272 kts | 199° |
| 2026-04-30 14:32 | 28.22931 | -15.37604 | 7143 ft | 265 kts | 199° |
| 2026-04-30 14:32 | 28.21145 | -15.38119 | 6648 ft | 271 kts | 184° |
| 2026-04-30 14:33 | 28.19289 | -15.37640 | 5923 ft | 285 kts | 149° |
| 2026-04-30 14:33 | 28.17414 | -15.33784 | 3959 ft | 299 kts | 87° |
| 2026-04-30 14:33 | 28.17509 | -15.32553 | 3542 ft | 296 kts | 84° |